Hauptseite
METAR-TAF:

METAR-TAF

Flughäfen :

Scilly-Inseln, England

St Mary’s Airport

Breite: 49-55N, Länge: 006-18W, Höhe: 31 m

Beobachtung

Neuester Wetterbericht von vor 38 Minuten, um 14:50 UTC
Wind 5 kt aus Südost
Temperatur 13°C
Luftfeuchtigkeit 88%
Luftdruck 1015 hPa
Sichtweite 10 km oder mehr
keine Wolken unter 1500 m und keine Kumulonimbus oder Gewitterwolken

METAR: EGHE 211450Z 14005KT CAVOK 13/11 Q1015

Zeit: 16:28 (15:28 UTC)

Prognose

Neuester Wetterbericht von vor 1 Stunde und 27 Minuten, um 14:01 UTC
Gültige Prognose vom 21 um 15 UTC bis 21 um 18 UTC
Wind 9 kt aus Südost
Sichtweite 10 km oder mehr
keine Wolken unter 1500 m und keine Kumulonimbus oder Gewitterwolken
Wahrscheinlichkeit 30% :
Zeitweise
vom 21 um 15 UTC bis 21 um 18 UTC
Sichtweite: 8000 m

TAF: EGHE 211401Z 2115/2118 13009KT CAVOK PROB30 TEMPO 2115/2118 8000

Wetterbeobachtungen und Prognosen von mehr als 4000 Flughäfen (METAR und TAF Bericht).

Die verfügbaren Stationen werden durch gelbe und rote Markierungen auf der Karte dargestellt.

Führen Sie die Maus auf sie, um den Namen der Station zu sehen.

Darauf klicken, um die Beobachtung von Wetterbeobachtungen und Prognosen zu sehen.

Um die Karte zu ändern : klicken Sie auf den grünen Tasten mit einem schwarzen Kreuz Zum Vergrößern, auf den grünen Button mit einem Gedankenstrich zu verkleinern, oder auf die grünen Pfeile für benachbarte Karten.


METAR-TAF: